createdAt,value
2023-01-01T00:00:34.226Z,100337.41
2023-01-01T00:05:38.701Z,100333.00
2023-01-01T00:10:40.031Z,100322.19
2023-01-01T00:15:41.512Z,100325.91
2023-01-01T00:20:42.899Z,100322.81
2023-01-01T00:25:44.452Z,100336.09
2023-01-01T00:30:45.840Z,100331.31
2023-01-01T00:35:47.217Z,100324.41
2023-01-01T00:40:48.613Z,100315.03
2023-01-01T00:45:52.832Z,100320.16
2023-01-01T00:50:54.480Z,100321.78
2023-01-01T00:55:56.449Z,100324.69
2023-01-01T01:00:57.992Z,100329.03
2023-01-01T01:06:02.078Z,100325.06
2023-01-01T01:11:08.665Z,100311.28
2023-01-01T01:16:13.573Z,100326.63
2023-01-01T01:21:16.902Z,100312.25
2023-01-01T01:26:23.747Z,100320.38
2023-01-01T01:31:28.693Z,100315.53
2023-01-01T01:36:30.285Z,100324.53
2023-01-01T01:41:31.619Z,100327.84
2023-01-01T01:46:36.665Z,100327.63
2023-01-01T01:51:40.589Z,100325.16
2023-01-01T01:56:50.948Z,100331.00
2023-01-01T02:01:52.970Z,100338.06
2023-01-01T02:06:55.685Z,100339.56
2023-01-01T02:11:58.752Z,100341.03
2023-01-01T02:17:09.081Z,100358.06
2023-01-01T02:22:48.787Z,100369.31
2023-01-01T02:28:08.847Z,100380.56
2023-01-01T02:33:16.223Z,100371.78
2023-01-01T02:38:24.001Z,100383.63
2023-01-01T02:43:25.385Z,100383.38
2023-01-01T02:48:40.477Z,100387.47
2023-01-01T02:53:55.773Z,100393.84
2023-01-01T02:59:33.518Z,100391.94
2023-01-01T03:04:55.213Z,100382.69
2023-01-01T03:10:07.473Z,100367.22
2023-01-01T03:15:36.284Z,100372.50
2023-01-01T03:20:42.357Z,100377.06
2023-01-01T03:25:48.922Z,100367.91
2023-01-01T03:30:52.563Z,100370.06
2023-01-01T03:36:05.572Z,100382.13
2023-01-01T03:41:35.635Z,100378.25
2023-01-01T03:46:37.668Z,100385.97
2023-01-01T03:52:15.322Z,100383.09
2023-01-01T03:57:47.815Z,100391.41
2023-01-01T04:02:52.070Z,100405.63
2023-01-01T04:07:54.255Z,100395.47
2023-01-01T04:12:57.579Z,100391.50
2023-01-01T04:17:59.120Z,100390.00
2023-01-01T04:23:01.673Z,100401.00
2023-01-01T04:28:05.865Z,100399.38
2023-01-01T04:33:07.208Z,100406.78
2023-01-01T04:38:13.126Z,100394.03
2023-01-01T04:43:14.442Z,100392.53
2023-01-01T04:48:15.815Z,100402.00
2023-01-01T04:53:17.156Z,100407.84
2023-01-01T04:58:18.575Z,100414.72
2023-01-01T05:03:19.907Z,100425.34
2023-01-01T05:08:21.224Z,100438.00
2023-01-01T05:13:22.588Z,100446.44
2023-01-01T05:18:23.946Z,100449.44
2023-01-01T05:23:25.308Z,100451.66
2023-01-01T05:28:27.153Z,100456.31
2023-01-01T05:33:28.464Z,100453.09
2023-01-01T05:38:29.827Z,100459.06
2023-01-01T05:43:31.152Z,100464.59
2023-01-01T05:48:32.876Z,100471.09
2023-01-01T05:53:35.072Z,100460.97
2023-01-01T05:58:36.782Z,100456.78
2023-01-01T06:03:38.125Z,100468.03
2023-01-01T06:08:40.321Z,100465.72
2023-01-01T06:13:41.635Z,100472.88
2023-01-01T06:18:43.053Z,100478.66
2023-01-01T06:23:44.734Z,100484.31
2023-01-01T06:28:46.745Z,100497.06
2023-01-01T06:33:48.984Z,100493.97
2023-01-01T06:38:52.926Z,100509.19
2023-01-01T06:43:56.068Z,100511.13
2023-01-01T06:49:00.229Z,100515.47
2023-01-01T06:54:03.742Z,100523.47
2023-01-01T06:59:05.973Z,100510.22
2023-01-01T07:04:11.061Z,100516.22
2023-01-01T07:09:12.501Z,100544.91
2023-01-01T07:14:13.917Z,100541.75
2023-01-01T07:19:15.469Z,100544.47
2023-01-01T07:24:17.187Z,100555.94
2023-01-01T07:29:18.605Z,100546.72
2023-01-01T07:34:20.084Z,100552.66
2023-01-01T07:39:21.453Z,100557.53
2023-01-01T07:44:22.806Z,100582.56
2023-01-01T07:49:24.176Z,100587.13
2023-01-01T07:54:25.569Z,100589.81
2023-01-01T07:59:26.899Z,100604.75
2023-01-01T08:04:28.261Z,100611.19
2023-01-01T08:09:29.579Z,100583.91
2023-01-01T08:14:30.931Z,100584.28
2023-01-01T08:19:32.275Z,100600.41
2023-01-01T08:24:33.618Z,100603.56
2023-01-01T08:29:34.937Z,100598.47
2023-01-01T08:34:36.400Z,100605.63
2023-01-01T08:39:37.715Z,100605.41
2023-01-01T08:44:39.033Z,100619.28
2023-01-01T08:49:40.421Z,100625.53
2023-01-01T08:54:41.848Z,100616.09
2023-01-01T08:59:43.298Z,100616.00
2023-01-01T09:04:44.665Z,100615.78
2023-01-01T09:09:46.084Z,100618.28
2023-01-01T09:14:48.018Z,100618.50
2023-01-01T09:19:49.336Z,100627.50
2023-01-01T09:24:50.672Z,100630.25
2023-01-01T09:29:52.022Z,100646.25
2023-01-01T09:34:53.412Z,100648.16
2023-01-01T09:39:54.769Z,100644.16
2023-01-01T09:45:20.986Z,100637.63
2023-01-01T09:50:27.939Z,100637.06
2023-01-01T09:56:05.163Z,100637.97
2023-01-01T10:01:25.160Z,100636.19
2023-01-01T10:06:33.655Z,100633.50
2023-01-01T10:11:59.447Z,100617.53
2023-01-01T10:17:06.497Z,100624.50
2023-01-01T10:22:15.252Z,100629.94
2023-01-01T10:27:39.961Z,100636.25
2023-01-01T10:32:43.295Z,100637.50
2023-01-01T10:37:45.039Z,100633.63
2023-01-01T10:42:50.027Z,100638.91
2023-01-01T10:48:15.067Z,100631.44
2023-01-01T10:53:52.872Z,100635.03
2023-01-01T10:58:56.525Z,100625.00
2023-01-01T11:04:21.101Z,100617.88
2023-01-01T11:09:26.539Z,100617.91
2023-01-01T11:14:33.617Z,100596.69
2023-01-01T11:19:37.516Z,100591.06
2023-01-01T11:24:39.342Z,100591.47
2023-01-01T11:29:40.735Z,100590.25
2023-01-01T11:34:44.003Z,100578.34
2023-01-01T11:39:48.920Z,100580.44
2023-01-01T11:44:58.217Z,100574.16
2023-01-01T11:50:08.904Z,100572.50
2023-01-01T11:55:42.272Z,100570.16
2023-01-01T12:00:44.115Z,100578.75
2023-01-01T12:05:59.933Z,100598.19
2023-01-01T12:11:39.553Z,100589.16
2023-01-01T12:16:59.807Z,100582.06
2023-01-01T12:22:01.229Z,100591.69
2023-01-01T12:27:16.335Z,100577.88
2023-01-01T12:32:49.857Z,100582.66
2023-01-01T12:38:23.286Z,100589.09
2023-01-01T12:43:43.027Z,100588.22
2023-01-01T12:49:05.975Z,100574.88
2023-01-01T12:54:39.596Z,100569.59
2023-01-01T12:59:47.893Z,100556.47
2023-01-01T13:04:53.867Z,100558.97
2023-01-01T13:09:56.413Z,100566.91
2023-01-01T13:14:57.767Z,100573.75
2023-01-01T13:20:16.207Z,100567.50
2023-01-01T13:25:17.564Z,100572.94
2023-01-01T13:30:37.304Z,100576.50
2023-01-01T13:35:38.944Z,100569.81
2023-01-01T13:40:50.903Z,100573.56
2023-01-01T13:46:13.088Z,100577.69
2023-01-01T13:52:07.610Z,100565.84
2023-01-01T13:57:28.082Z,100571.53
2023-01-01T14:02:36.221Z,100582.41
2023-01-01T14:07:52.696Z,100575.97
2023-01-01T14:12:57.950Z,100578.91
2023-01-01T14:18:02.723Z,100571.38
2023-01-01T14:23:11.807Z,100584.75
2023-01-01T14:28:22.170Z,100581.00
2023-01-01T14:33:29.422Z,100594.19
2023-01-01T14:38:32.125Z,100591.25
2023-01-01T14:43:37.038Z,100577.69
2023-01-01T14:48:43.552Z,100583.34
2023-01-01T14:53:48.094Z,100572.88
2023-01-01T14:58:49.460Z,100580.41
2023-01-01T15:04:05.392Z,100575.84
2023-01-01T15:09:06.830Z,100573.75
2023-01-01T15:14:31.020Z,100569.97
2023-01-01T15:19:32.591Z,100562.28
2023-01-01T15:24:37.390Z,100565.84
2023-01-01T15:29:47.336Z,100566.44
2023-01-01T15:34:54.709Z,100577.94
2023-01-01T15:39:59.316Z,100583.16
2023-01-01T15:45:24.969Z,100572.94
2023-01-01T15:50:35.616Z,100572.50
2023-01-01T15:55:44.123Z,100569.59
2023-01-01T16:00:58.491Z,100578.34
2023-01-01T16:06:00.550Z,100575.19
2023-01-01T16:11:01.931Z,100572.94
2023-01-01T16:16:04.007Z,100565.41
2023-01-01T16:21:05.793Z,100568.53
2023-01-01T16:26:07.272Z,100566.44
2023-01-01T16:31:14.706Z,100552.66
2023-01-01T16:36:16.139Z,100563.75
2023-01-01T16:41:18.172Z,100560.19
2023-01-01T16:46:19.529Z,100544.13
2023-01-01T16:51:24.138Z,100546.00
2023-01-01T16:56:25.564Z,100544.31
2023-01-01T17:01:27.196Z,100545.16
2023-01-01T17:06:28.781Z,100541.41
2023-01-01T17:11:30.169Z,100545.56
2023-01-01T17:16:38.762Z,100545.75
2023-01-01T17:21:41.032Z,100535.13
2023-01-01T17:26:42.451Z,100519.41
2023-01-01T17:31:44.088Z,100513.78
2023-01-01T17:36:45.916Z,100509.81
2023-01-01T17:41:47.345Z,100515.84
2023-01-01T17:46:48.854Z,100525.41
2023-01-01T17:51:50.385Z,100509.97
2023-01-01T17:56:53.079Z,100514.78
2023-01-01T18:01:54.526Z,100522.69
2023-01-01T18:07:06.012Z,100498.09
2023-01-01T18:12:07.692Z,100490.56
2023-01-01T18:17:09.182Z,100480.13
2023-01-01T18:22:10.740Z,100476.16
2023-01-01T18:27:12.158Z,100477.19
2023-01-01T18:32:13.533Z,100469.63
2023-01-01T18:37:14.916Z,100477.34
2023-01-01T18:42:39.635Z,100463.75
2023-01-01T18:47:41.158Z,100466.66
2023-01-01T18:52:42.576Z,100455.59
2023-01-01T18:57:49.417Z,100456.19
2023-01-01T19:03:28.247Z,100433.47
2023-01-01T19:08:30.151Z,100429.91
2023-01-01T19:13:41.673Z,100438.94
2023-01-01T19:18:45.391Z,100427.72
2023-01-01T19:23:55.316Z,100416.84
2023-01-01T19:29:02.873Z,100413.00
2023-01-01T19:34:04.482Z,100412.63
2023-01-01T19:39:07.252Z,100398.06
2023-01-01T19:44:10.492Z,100406.25
2023-01-01T19:49:12.776Z,100399.63
2023-01-01T19:54:14.413Z,100400.88
2023-01-01T19:59:15.914Z,100397.69
2023-01-01T20:04:17.405Z,100394.44
2023-01-01T20:09:18.926Z,100391.13
2023-01-01T20:14:20.272Z,100392.56
2023-01-01T20:19:21.612Z,100390.69
2023-01-01T20:24:23.010Z,100381.75
2023-01-01T20:29:24.452Z,100382.13
2023-01-01T20:34:26.746Z,100390.81
2023-01-01T20:39:28.571Z,100391.78
2023-01-01T20:44:30.235Z,100377.41
2023-01-01T20:49:31.645Z,100380.53
2023-01-01T20:54:33.160Z,100381.13
2023-01-01T20:59:36.561Z,100394.19
2023-01-01T21:04:40.318Z,100389.31
2023-01-01T21:09:42.049Z,100394.72
2023-01-01T21:14:43.418Z,100385.59
2023-01-01T21:19:44.960Z,100386.41
2023-01-01T21:24:49.802Z,100396.97
2023-01-01T21:29:57.400Z,100390.13
2023-01-01T21:34:58.824Z,100381.84
2023-01-01T21:40:00.290Z,100383.09
2023-01-01T21:45:02.019Z,100390.09
2023-01-01T21:50:18.941Z,100396.66
2023-01-01T21:55:50.145Z,100396.78
2023-01-01T22:00:51.548Z,100391.13
2023-01-01T22:05:58.975Z,100394.41
2023-01-01T22:11:01.347Z,100386.69
2023-01-01T22:16:03.091Z,100385.19
2023-01-01T22:21:04.656Z,100404.47
2023-01-01T22:26:17.294Z,100402.97
2023-01-01T22:31:29.326Z,100396.75
2023-01-01T22:36:34.696Z,100393.47
2023-01-01T22:41:36.035Z,100380.75
2023-01-01T22:46:40.076Z,100390.91
2023-01-01T22:51:43.637Z,100405.50
2023-01-01T22:56:44.973Z,100392.63
2023-01-01T23:01:46.643Z,100401.56
2023-01-01T23:06:48.056Z,100386.41
2023-01-01T23:11:49.525Z,100388.06
2023-01-01T23:16:50.919Z,100389.38
2023-01-01T23:21:52.401Z,100385.47
2023-01-01T23:26:53.804Z,100374.03
2023-01-01T23:31:55.251Z,100385.00
2023-01-01T23:36:57.726Z,100384.53
2023-01-01T23:41:59.172Z,100380.38
2023-01-01T23:47:00.966Z,100373.94
2023-01-01T23:52:03.362Z,100359.59
2023-01-01T23:57:05.363Z,100365.00
